Time;durP1;ratioP1;P1;durP2;ratioP2;P2;SDS_P1;SDS_P2;PMS_P1;PMS_P2;Temp;Humidity;BMP_temperature;BMP_pressure;BME280_temperature;BME280_humidity;BME280_pressure;Samples;Min_cycle;Max_cycle;Signal;HPM_P1;HPM_P2
2022/03/20 00:01:24;;;;;;;30.38;13.43;;;10.30;99.90;;;;;;5023264;28;20034;-77
2022/03/20 00:03:50;;;;;;;31.38;14.40;;;10.40;99.90;;;;;;5019664;28;20416;-78
2022/03/20 00:06:17;;;;;;;32.88;14.43;;;10.40;99.90;;;;;;5033442;28;20046;-77
2022/03/20 00:08:43;;;;;;;32.20;14.40;;;10.50;99.90;;;;;;5015670;28;20062;-77
2022/03/20 00:11:08;;;;;;;28.33;14.02;;;10.50;99.90;;;;;;5017012;28;20087;-76
2022/03/20 00:13:34;;;;;;;31.77;14.15;;;10.50;99.90;;;;;;5013257;28;20042;-76
2022/03/20 00:16:00;;;;;;;34.42;12.68;;;10.50;99.90;;;;;;4986064;28;20042;-76
2022/03/20 00:18:26;;;;;;;38.00;13.90;;;10.50;99.90;;;;;;5015275;28;20121;-76
2022/03/20 00:20:55;;;;;;;28.98;13.38;;;10.60;99.90;;;;;;5011594;28;20030;-78
2022/03/20 00:23:23;;;;;;;38.65;13.85;;;10.60;99.90;;;;;;5015863;28;20492;-76
2022/03/20 00:25:51;;;;;;;35.30;13.60;;;10.60;99.90;;;;;;4999507;28;20504;-77
2022/03/20 00:28:19;;;;;;;31.25;13.75;;;10.60;99.90;;;;;;5004646;28;20049;-76
2022/03/20 00:30:47;;;;;;;30.30;13.88;;;10.70;99.90;;;;;;5003697;28;20126;-77
2022/03/20 00:33:13;;;;;;;27.23;12.85;;;10.60;99.90;;;;;;4998269;28;20529;-77
2022/03/20 00:35:39;;;;;;;33.08;13.52;;;10.60;99.90;;;;;;5001997;28;20115;-77
2022/03/20 00:38:06;;;;;;;29.63;13.95;;;10.60;99.90;;;;;;5017621;28;21178;-76
2022/03/20 00:40:33;;;;;;;29.30;13.45;;;10.50;99.90;;;;;;5013928;28;20061;-76
2022/03/20 00:42:59;;;;;;;29.23;12.23;;;10.50;99.90;;;;;;5008821;28;20037;-77
2022/03/20 00:45:25;;;;;;;31.83;12.45;;;10.50;99.90;;;;;;5017422;28;20096;-77
2022/03/20 00:47:50;;;;;;;28.42;13.15;;;10.40;99.90;;;;;;4998855;28;20042;-77
2022/03/20 00:50:16;;;;;;;27.65;12.25;;;10.40;99.90;;;;;;4998568;28;20198;-77
2022/03/20 00:52:43;;;;;;;32.22;14.00;;;10.40;99.90;;;;;;5000525;28;20054;-77
2022/03/20 00:55:09;;;;;;;29.48;13.10;;;10.40;99.90;;;;;;5015324;28;20049;-76
2022/03/20 00:57:35;;;;;;;26.67;12.52;;;10.40;99.90;;;;;;5008767;28;20069;-77
2022/03/20 01:00:01;;;;;;;26.77;12.50;;;10.40;99.90;;;;;;5004651;28;20062;-77
2022/03/20 01:02:27;;;;;;;32.05;12.32;;;10.40;99.90;;;;;;5021322;28;20073;-77
2022/03/20 01:04:52;;;;;;;26.98;11.73;;;10.30;99.90;;;;;;5004103;28;20042;-77
2022/03/20 01:07:19;;;;;;;25.50;11.68;;;10.30;99.90;;;;;;5016231;28;20034;-77
2022/03/20 01:09:45;;;;;;;25.25;11.35;;;10.30;99.90;;;;;;5005332;28;20488;-76
2022/03/20 01:12:12;;;;;;;26.10;11.43;;;10.30;99.90;;;;;;5018896;28;20046;-76
2022/03/20 01:14:38;;;;;;;27.00;11.85;;;10.30;99.90;;;;;;5007650;28;20443;-77
2022/03/20 01:17:04;;;;;;;32.35;12.25;;;10.30;99.90;;;;;;5005273;28;20038;-77
2022/03/20 01:19:31;;;;;;;30.85;13.45;;;10.40;99.90;;;;;;5014783;28;20424;-76
2022/03/20 01:21:58;;;;;;;30.83;12.02;;;10.40;99.90;;;;;;5008488;28;20034;-76
2022/03/20 01:24:27;;;;;;;28.98;12.07;;;10.30;99.90;;;;;;5018722;28;20034;-77
2022/03/20 01:26:53;;;;;;;25.67;11.90;;;10.40;99.90;;;;;;5004296;28;20038;-77
2022/03/20 01:29:19;;;;;;;22.92;11.70;;;10.40;99.90;;;;;;5002253;28;20125;-78
2022/03/20 01:31:44;;;;;;;28.60;11.75;;;10.40;99.90;;;;;;5005017;28;20048;-77
2022/03/20 01:34:11;;;;;;;25.88;11.73;;;10.50;99.90;;;;;;5022706;28;20046;-76
2022/03/20 01:36:37;;;;;;;27.45;12.88;;;10.50;99.90;;;;;;5003363;28;20104;-76
2022/03/20 01:39:03;;;;;;;29.08;12.52;;;10.60;99.90;;;;;;5001371;28;20512;-77
2022/03/20 01:41:29;;;;;;;31.42;13.35;;;10.60;99.90;;;;;;5021653;28;20038;-76
2022/03/20 01:43:57;;;;;;;29.73;12.80;;;10.60;99.90;;;;;;5004554;28;20069;-77
2022/03/20 01:46:24;;;;;;;31.48;13.55;;;10.60;99.90;;;;;;5008227;28;20057;-77
2022/03/20 01:48:50;;;;;;;31.33;12.77;;;10.60;99.90;;;;;;5016270;28;20440;-77
2022/03/20 01:51:17;;;;;;;28.80;12.80;;;10.50;99.90;;;;;;5015523;28;20542;-77
2022/03/20 01:53:43;;;;;;;32.97;13.75;;;10.60;99.90;;;;;;5010345;28;20169;-76
2022/03/20 01:56:10;;;;;;;29.35;13.07;;;10.60;99.90;;;;;;5005660;28;20050;-77
2022/03/20 01:58:36;;;;;;;29.77;13.30;;;10.60;99.90;;;;;;5005045;28;20042;-77
2022/03/20 02:01:03;;;;;;;26.85;13.23;;;10.60;99.90;;;;;;5009014;28;20052;-77
2022/03/20 02:03:30;;;;;;;31.20;13.38;;;10.60;99.90;;;;;;5023821;28;20113;-77
2022/03/20 02:05:56;;;;;;;26.35;12.48;;;10.70;99.90;;;;;;5005833;28;20129;-77
2022/03/20 02:08:26;;;;;;;26.75;11.90;;;10.70;99.90;;;;;;5038529;28;20547;-77
2022/03/20 02:10:55;;;;;;;31.48;12.95;;;10.70;99.90;;;;;;5009835;28;20034;-77
2022/03/20 02:13:26;;;;;;;25.88;12.55;;;10.70;99.90;;;;;;5015420;28;20053;-77
2022/03/20 02:15:52;;;;;;;30.38;12.32;;;10.70;99.90;;;;;;5004354;28;20417;-76
2022/03/20 02:18:19;;;;;;;24.58;12.70;;;10.70;99.90;;;;;;5002522;28;20128;-76
2022/03/20 02:20:48;;;;;;;25.25;13.13;;;10.70;99.90;;;;;;5032970;28;20037;-77
2022/03/20 02:23:17;;;;;;;27.38;12.13;;;10.70;99.90;;;;;;5004538;28;20053;-77
2022/03/20 02:25:51;;;;;;;25.67;11.25;;;10.70;99.90;;;;;;5006488;28;20062;-77
2022/03/20 02:28:17;;;;;;;25.92;11.98;;;10.70;99.90;;;;;;5020521;28;20050;-77
2022/03/20 02:30:45;;;;;;;28.05;12.70;;;10.70;99.90;;;;;;4998682;28;20504;-78
2022/03/20 02:33:10;;;;;;;23.30;12.38;;;10.70;99.90;;;;;;5001916;28;20119;-77
2022/03/20 02:35:40;;;;;;;28.92;12.57;;;10.70;99.90;;;;;;5021804;28;20038;-77
2022/03/20 02:38:10;;;;;;;28.23;12.43;;;10.70;99.90;;;;;;5017455;28;20044;-76
2022/03/20 02:40:54;;;;;;;31.67;12.48;;;10.80;99.90;;;;;;5003823;28;20113;-76
2022/03/20 02:43:20;;;;;;;27.48;14.20;;;10.80;99.90;;;;;;4998346;28;20064;-78
2022/03/20 02:45:47;;;;;;;22.30;12.05;;;10.70;99.90;;;;;;5033958;28;21313;-77
2022/03/20 02:48:15;;;;;;;32.17;12.95;;;10.70;99.90;;;;;;5001705;28;20042;-77
2022/03/20 02:50:41;;;;;;;30.80;13.70;;;10.70;99.90;;;;;;5018356;28;20044;-77
2022/03/20 02:53:13;;;;;;;29.73;12.27;;;10.80;99.90;;;;;;5016567;28;20050;-77
2022/03/20 02:55:42;;;;;;;27.23;13.00;;;10.80;99.90;;;;;;5015650;28;20065;-77
2022/03/20 02:58:11;;;;;;;26.17;13.30;;;10.80;99.90;;;;;;5016888;28;20117;-77
2022/03/20 03:00:40;;;;;;;24.85;12.48;;;10.80;99.90;;;;;;4991932;28;20049;-77
2022/03/20 03:03:11;;;;;;;25.50;13.30;;;10.80;99.90;;;;;;5002236;28;20042;-77
2022/03/20 03:05:39;;;;;;;25.90;12.63;;;10.80;99.90;;;;;;5000878;28;20037;-74
2022/03/20 03:10:55;;;;;;;31.63;13.48;;;10.90;99.90;;;;;;5002482;28;20052;-77
2022/03/20 03:13:23;;;;;;;23.88;11.77;;;10.90;99.90;;;;;;5015634;28;20039;-76
2022/03/20 03:15:52;;;;;;;24.33;12.23;;;10.90;99.90;;;;;;5003116;28;20057;-76
2022/03/20 03:18:20;;;;;;;32.97;11.57;;;10.90;99.90;;;;;;5006973;28;20044;-76
2022/03/20 03:20:47;;;;;;;27.92;11.88;;;10.90;99.90;;;;;;4999316;28;20049;-76
2022/03/20 03:23:14;;;;;;;30.90;12.30;;;10.90;99.90;;;;;;5020222;28;20123;-76
2022/03/20 03:25:40;;;;;;;25.52;11.20;;;10.90;99.90;;;;;;5017647;28;20037;-77
2022/03/20 03:28:10;;;;;;;25.30;11.35;;;10.90;99.90;;;;;;5017663;28;20034;-77
2022/03/20 03:30:40;;;;;;;27.92;10.88;;;10.90;99.90;;;;;;4999450;28;20080;-77
2022/03/20 03:33:06;;;;;;;25.30;11.25;;;10.90;99.90;;;;;;5037780;28;20076;-77
2022/03/20 03:38:19;;;;;;;22.27;10.45;;;10.80;99.90;;;;;;5008993;28;20064;-77
2022/03/20 03:40:47;;;;;;;25.30;11.45;;;10.80;99.90;;;;;;5006352;28;20042;-77
2022/03/20 03:43:18;;;;;;;27.48;9.98;;;10.80;99.90;;;;;;5008067;28;20041;-75
2022/03/20 03:45:45;;;;;;;26.10;10.32;;;10.70;99.90;;;;;;5032591;28;20239;-76
2022/03/20 03:48:12;;;;;;;28.90;10.85;;;10.70;99.90;;;;;;5017439;28;20042;-76
2022/03/20 03:50:40;;;;;;;22.10;11.05;;;10.60;99.90;;;;;;5036439;28;20033;-77
2022/03/20 03:53:08;;;;;;;21.58;10.30;;;10.60;99.90;;;;;;5018115;28;20054;-77
2022/03/20 03:55:35;;;;;;;21.95;9.73;;;10.60;99.90;;;;;;4998801;28;20117;-76
2022/03/20 03:58:01;;;;;;;18.67;9.63;;;10.60;99.90;;;;;;5002030;28;20714;-77
2022/03/20 04:00:29;;;;;;;29.77;10.13;;;10.60;99.90;;;;;;5032934;28;20033;-77
2022/03/20 04:02:55;;;;;;;25.20;10.00;;;10.50;99.90;;;;;;5010520;28;20473;-77
2022/03/20 04:05:21;;;;;;;21.55;10.18;;;10.60;99.90;;;;;;5001881;28;20061;-77
2022/03/20 04:07:47;;;;;;;20.45;8.85;;;10.60;99.90;;;;;;5014527;28;20121;-77
2022/03/20 04:10:14;;;;;;;20.60;9.77;;;10.50;99.90;;;;;;5001557;28;20822;-76
2022/03/20 04:12:41;;;;;;;19.60;8.77;;;10.60;99.90;;;;;;5017560;28;20108;-76
2022/03/20 04:15:14;;;;;;;22.10;9.52;;;10.60;99.90;;;;;;5030648;28;20499;-78
2022/03/20 04:17:41;;;;;;;20.65;9.63;;;10.60;99.90;;;;;;5033550;28;20034;-76
2022/03/20 04:20:08;;;;;;;20.48;9.35;;;10.60;99.90;;;;;;5003252;28;20034;-76
2022/03/20 04:22:39;;;;;;;22.95;9.07;;;10.70;99.90;;;;;;5002774;28;20534;-77
2022/03/20 04:25:06;;;;;;;20.02;9.45;;;10.70;99.90;;;;;;5035825;28;20439;-76
2022/03/20 04:27:33;;;;;;;19.23;8.82;;;10.70;99.90;;;;;;5004781;28;20039;-76
2022/03/20 04:29:59;;;;;;;22.15;8.98;;;10.70;99.90;;;;;;5001167;28;20042;-76
2022/03/20 04:32:25;;;;;;;21.70;9.48;;;10.70;99.90;;;;;;5005295;28;20057;-77
2022/03/20 04:34:52;;;;;;;20.00;9.00;;;10.80;99.90;;;;;;5037722;28;20414;-77
2022/03/20 04:37:21;;;;;;;25.10;9.52;;;10.80;99.90;;;;;;5034812;28;20063;-76
2022/03/20 04:39:48;;;;;;;17.88;8.68;;;10.90;99.90;;;;;;5003039;28;20038;-76
2022/03/20 04:42:14;;;;;;;24.95;9.63;;;10.90;99.90;;;;;;5004582;28;20476;-77
2022/03/20 04:44:40;;;;;;;21.45;10.25;;;10.90;99.90;;;;;;5040534;28;20076;-78
2022/03/20 04:58:28;;;;;;;17.40;9.50;;;10.90;99.90;;;;;;5004665;28;20049;-76
2022/03/20 04:58:50;;;;;;;24.42;9.13;;;11.00;99.90;;;;;;5008038;28;20049;-76
2022/03/20 05:00:58;;;;;;;21.25;9.48;;;11.00;99.90;;;;;;5019513;28;20052;-76
2022/03/20 05:03:24;;;;;;;18.13;9.63;;;11.00;99.90;;;;;;5005198;28;20034;-77
2022/03/20 05:05:50;;;;;;;20.40;9.68;;;11.00;99.90;;;;;;5037396;28;20413;-77
2022/03/20 05:08:16;;;;;;;23.55;10.18;;;11.10;99.90;;;;;;5003177;28;20042;-76
2022/03/20 05:13:26;;;;;;;19.70;9.13;;;11.10;99.90;;;;;;5006204;28;20054;-77
2022/03/20 05:15:58;;;;;;;24.88;10.20;;;11.10;99.90;;;;;;5004170;28;20030;-77
2022/03/20 05:18:25;;;;;;;24.77;10.23;;;11.10;99.90;;;;;;5020387;28;20372;-77
2022/03/20 05:20:52;;;;;;;27.25;9.63;;;11.10;99.90;;;;;;5033770;28;20042;-77
2022/03/20 05:23:19;;;;;;;27.00;9.77;;;11.10;99.90;;;;;;5003247;28;20061;-77
2022/03/20 05:25:45;;;;;;;18.48;9.60;;;11.10;99.90;;;;;;5008985;28;20030;-76
2022/03/20 05:28:11;;;;;;;23.13;9.90;;;11.10;99.90;;;;;;5037726;28;20057;-77
2022/03/20 05:30:37;;;;;;;19.05;9.40;;;11.10;99.90;;;;;;5002499;28;20046;-76
2022/03/20 05:33:03;;;;;;;23.30;10.13;;;11.10;99.90;;;;;;5003676;28;20473;-76
2022/03/20 05:35:29;;;;;;;22.77;10.38;;;11.10;99.90;;;;;;5005898;28;20034;-77
2022/03/20 05:37:55;;;;;;;21.27;9.05;;;11.10;99.90;;;;;;5002606;28;20072;-76
2022/03/20 05:40:22;;;;;;;20.15;9.25;;;11.20;99.90;;;;;;5001708;28;20060;-76
2022/03/20 05:42:48;;;;;;;22.15;9.63;;;11.20;99.90;;;;;;5035926;28;20042;-77
2022/03/20 05:45:14;;;;;;;24.00;9.88;;;11.20;99.90;;;;;;5035572;28;20086;-77
2022/03/20 05:47:40;;;;;;;20.02;8.95;;;11.20;99.90;;;;;;5032739;28;20711;-76
2022/03/20 05:50:08;;;;;;;21.45;9.77;;;11.20;99.90;;;;;;5004015;28;20094;-76
2022/03/20 05:52:35;;;;;;;21.67;9.38;;;11.20;99.90;;;;;;5008527;28;20050;-77
2022/03/20 05:55:07;;;;;;;17.30;8.80;;;11.20;99.90;;;;;;5002575;28;20563;-77
2022/03/20 06:00:27;;;;;;;22.17;8.65;;;11.20;99.90;;;;;;5003807;28;20040;-76
2022/03/20 06:02:53;;;;;;;16.48;8.00;;;11.30;99.90;;;;;;5001761;28;20038;-77
2022/03/20 06:05:19;;;;;;;18.58;9.10;;;11.30;99.90;;;;;;5013871;28;20076;-78
2022/03/20 06:07:47;;;;;;;18.38;8.75;;;11.30;99.90;;;;;;5019010;28;20808;-77
2022/03/20 06:10:17;;;;;;;21.48;9.77;;;11.30;99.90;;;;;;5005549;28;20045;-76
2022/03/20 06:12:44;;;;;;;21.50;9.20;;;11.40;99.90;;;;;;5014431;28;20117;-77
2022/03/20 06:15:11;;;;;;;19.90;8.40;;;11.40;99.90;;;;;;5006327;28;20125;-76
2022/03/20 06:17:38;;;;;;;20.80;9.00;;;11.40;99.90;;;;;;5005766;28;20120;-77
2022/03/20 06:20:07;;;;;;;20.92;8.73;;;11.40;99.90;;;;;;5005197;28;20042;-77
2022/03/20 06:22:34;;;;;;;22.17;9.40;;;11.50;99.90;;;;;;5040053;28;20115;-76
2022/03/20 06:25:03;;;;;;;16.55;8.52;;;11.50;99.90;;;;;;5014272;28;20056;-77
2022/03/20 06:27:40;;;;;;;23.45;9.40;;;11.50;99.90;;;;;;5023239;28;20045;-77
2022/03/20 06:30:06;;;;;;;19.05;8.75;;;11.50;99.90;;;;;;5005468;28;20472;-77
2022/03/20 06:32:32;;;;;;;24.52;10.05;;;11.50;99.90;;;;;;4990350;28;20034;-77
2022/03/20 06:34:58;;;;;;;20.85;9.57;;;11.60;99.90;;;;;;5007194;28;20057;-76
2022/03/20 06:37:24;;;;;;;16.90;9.88;;;11.60;99.90;;;;;;5035508;28;20045;-77
2022/03/20 06:39:50;;;;;;;22.20;9.88;;;11.60;99.90;;;;;;5021429;28;20056;-77
2022/03/20 06:42:16;;;;;;;21.95;10.07;;;11.60;99.90;;;;;;5010073;28;20177;-77
2022/03/20 06:44:42;;;;;;;20.08;10.00;;;11.70;99.90;;;;;;5019800;28;20116;-77
2022/03/20 06:47:08;;;;;;;18.48;9.82;;;11.70;99.90;;;;;;5000249;28;20030;-76
2022/03/20 06:49:34;;;;;;;28.10;10.63;;;11.70;99.90;;;;;;5036422;28;20064;-76
2022/03/20 06:52:00;;;;;;;22.02;10.10;;;11.70;99.90;;;;;;5011261;28;20489;-77
2022/03/20 06:54:26;;;;;;;22.10;11.20;;;11.80;99.90;;;;;;4991395;28;20049;-80
2022/03/20 06:56:54;;;;;;;20.25;10.23;;;11.80;99.90;;;;;;5006139;28;20643;-77
2022/03/20 06:59:20;;;;;;;24.23;10.40;;;11.90;99.90;;;;;;5004910;28;20113;-76
2022/03/20 07:01:46;;;;;;;21.23;9.93;;;11.90;99.90;;;;;;5018522;28;20076;-77
2022/03/20 07:04:13;;;;;;;21.45;9.43;;;11.90;99.90;;;;;;4999478;28;20112;-77
2022/03/20 07:06:40;;;;;;;18.70;8.82;;;12.00;99.90;;;;;;5005261;28;20046;-77
2022/03/20 07:09:06;;;;;;;18.73;10.25;;;12.00;99.90;;;;;;5033573;28;20045;-76
2022/03/20 07:11:34;;;;;;;24.23;9.68;;;12.10;99.90;;;;;;5021201;28;20393;-77
2022/03/20 07:14:01;;;;;;;24.23;10.10;;;12.20;99.90;;;;;;5009122;28;20068;-76
2022/03/20 07:16:31;;;;;;;17.50;9.13;;;12.30;99.90;;;;;;5021635;28;20057;-77
2022/03/20 07:18:57;;;;;;;19.83;9.63;;;12.40;99.90;;;;;;5038022;28;20052;-77
2022/03/20 07:21:25;;;;;;;20.35;9.43;;;12.40;99.90;;;;;;5004450;28;20048;-78
2022/03/20 07:23:54;;;;;;;16.52;8.55;;;12.50;99.90;;;;;;5035492;28;20421;-77
2022/03/20 07:31:49;;;;;;;21.60;9.98;;;12.70;99.90;;;;;;5004988;28;20103;-77
2022/03/20 07:34:15;;;;;;;17.00;8.65;;;12.80;99.90;;;;;;5002387;28;20041;-76
2022/03/20 07:36:40;;;;;;;16.75;8.25;;;13.00;99.90;;;;;;5005654;28;20112;-77
2022/03/20 07:39:06;;;;;;;17.60;8.57;;;13.00;99.90;;;;;;5004840;28;20095;-77
2022/03/20 07:41:33;;;;;;;19.25;8.50;;;13.10;99.90;;;;;;5007810;28;20507;-76
2022/03/20 07:43:59;;;;;;;17.42;8.25;;;13.20;99.90;;;;;;5003373;28;20045;-77
2022/03/20 07:46:25;;;;;;;19.80;8.25;;;13.30;99.90;;;;;;5016826;28;20095;-77
2022/03/20 07:48:50;;;;;;;16.17;8.02;;;13.30;99.90;;;;;;5024845;28;20053;-77
2022/03/20 07:51:17;;;;;;;18.75;8.40;;;13.30;99.90;;;;;;5014314;28;20373;-77
2022/03/20 07:53:45;;;;;;;15.80;8.25;;;13.30;99.90;;;;;;5033809;28;20065;-78
2022/03/20 07:56:11;;;;;;;18.88;8.35;;;13.40;99.90;;;;;;5019827;28;20468;-78
2022/03/20 07:58:37;;;;;;;14.82;8.45;;;13.40;99.90;;;;;;5037008;28;20599;-78
2022/03/20 08:01:03;;;;;;;15.30;7.38;;;13.50;99.90;;;;;;5000555;28;20066;-78
2022/03/20 08:03:29;;;;;;;18.10;7.80;;;13.60;99.90;;;;;;5011469;28;20049;-77
2022/03/20 08:05:57;;;;;;;17.75;7.75;;;13.80;99.90;;;;;;5010058;28;20042;-76
2022/03/20 08:08:23;;;;;;;14.82;7.97;;;14.00;99.90;;;;;;5003815;28;20087;-76
2022/03/20 08:10:48;;;;;;;17.35;7.82;;;14.20;99.90;;;;;;4999559;28;20034;-77
2022/03/20 08:13:14;;;;;;;14.02;6.72;;;14.50;99.90;;;;;;5000992;28;20039;-77
2022/03/20 08:15:40;;;;;;;21.27;7.13;;;14.80;99.90;;;;;;5037664;28;20033;-77
2022/03/20 08:18:07;;;;;;;15.80;7.22;;;15.00;99.90;;;;;;5017011;28;20037;-77
2022/03/20 08:20:35;;;;;;;15.23;7.32;;;15.40;99.90;;;;;;5032092;28;20084;-77
2022/03/20 08:23:03;;;;;;;15.20;7.40;;;15.60;99.90;;;;;;5033831;28;20068;-77
2022/03/20 08:25:29;;;;;;;16.80;7.95;;;15.60;99.90;;;;;;5017198;28;20045;-78
2022/03/20 08:27:55;;;;;;;15.80;7.43;;;15.70;99.90;;;;;;4997953;28;20133;-77
2022/03/20 08:30:22;;;;;;;14.70;6.70;;;15.60;99.90;;;;;;4996930;28;20136;-77
2022/03/20 08:32:52;;;;;;;15.77;7.72;;;15.40;99.90;;;;;;5000136;28;20045;-77
2022/03/20 08:35:19;;;;;;;14.38;7.18;;;15.20;99.90;;;;;;4998069;28;20041;-77
2022/03/20 08:37:46;;;;;;;13.75;7.28;;;15.00;99.90;;;;;;5031983;28;20034;-77
2022/03/20 08:40:17;;;;;;;12.52;7.03;;;14.90;99.90;;;;;;5019760;28;20419;-78
2022/03/20 08:42:44;;;;;;;18.95;7.28;;;14.90;99.90;;;;;;5037497;28;20733;-77
2022/03/20 08:45:11;;;;;;;21.90;9.10;;;14.80;99.90;;;;;;5005435;28;20038;-78
2022/03/20 08:47:38;;;;;;;17.73;7.63;;;14.80;99.90;;;;;;5004897;28;20037;-78
2022/03/20 08:50:05;;;;;;;16.40;6.85;;;14.80;99.90;;;;;;5001532;28;20039;-77
2022/03/20 08:52:31;;;;;;;12.23;5.30;;;14.80;99.90;;;;;;5021278;28;20042;-77
2022/03/20 08:54:57;;;;;;;7.82;3.97;;;14.60;99.90;;;;;;5039032;28;20040;-79
2022/03/20 08:57:27;;;;;;;9.65;3.72;;;14.60;99.90;;;;;;5003161;28;20873;-77
2022/03/20 08:59:57;;;;;;;6.68;3.38;;;14.60;99.90;;;;;;5004112;28;20041;-77
2022/03/20 09:02:24;;;;;;;5.93;3.28;;;14.60;99.90;;;;;;5035058;28;20037;-78
2022/03/20 09:04:49;;;;;;;6.80;3.15;;;14.70;99.90;;;;;;5044330;28;20045;-77
2022/03/20 09:07:15;;;;;;;9.30;3.53;;;14.80;99.90;;;;;;4999778;28;20038;-78
2022/03/20 09:09:41;;;;;;;8.55;3.20;;;14.70;99.90;;;;;;5019193;28;20034;-76
2022/03/20 09:12:10;;;;;;;7.40;3.25;;;14.80;99.90;;;;;;5028324;28;20101;-77
2022/03/20 09:14:36;;;;;;;6.78;3.30;;;14.80;99.90;;;;;;5030094;28;20117;-77
2022/03/20 09:19:45;;;;;;;7.55;3.40;;;15.30;99.90;;;;;;5001550;28;20037;-77
2022/03/20 09:22:12;;;;;;;5.20;2.83;;;15.80;99.90;;;;;;5005030;28;20042;-78
2022/03/20 09:24:38;;;;;;;5.30;3.00;;;16.30;99.90;;;;;;5041000;28;20030;-78
2022/03/20 09:27:05;;;;;;;8.25;3.05;;;17.30;99.90;;;;;;5012021;28;20038;-78
2022/03/20 09:29:31;;;;;;;6.53;3.60;;;17.30;99.90;;;;;;5004577;28;20037;-77
2022/03/20 09:31:57;;;;;;;8.50;3.58;;;17.20;99.90;;;;;;5006337;28;20034;-78
2022/03/20 09:34:23;;;;;;;7.03;2.90;;;18.40;99.90;;;;;;5039856;28;20053;-79
2022/03/20 09:36:49;;;;;;;6.88;3.08;;;18.00;99.90;;;;;;5021565;28;20128;-77
2022/03/20 09:39:15;;;;;;;7.03;3.33;;;17.70;99.90;;;;;;5006413;28;20117;-77
2022/03/20 09:41:41;;;;;;;7.70;3.38;;;17.20;99.90;;;;;;5007552;28;20042;-77
2022/03/20 09:44:10;;;;;;;7.40;3.53;;;16.80;99.90;;;;;;5008479;28;20030;-78
2022/03/20 09:46:36;;;;;;;9.02;3.83;;;17.30;99.90;;;;;;5017741;28;20054;-77
2022/03/20 09:49:05;;;;;;;8.15;3.33;;;17.50;99.90;;;;;;5026055;28;20072;-77
2022/03/20 09:51:32;;;;;;;8.68;3.55;;;17.30;99.90;;;;;;5021766;28;20065;-78
2022/03/20 09:53:58;;;;;;;8.90;3.60;;;17.30;99.90;;;;;;4990363;28;20049;-78
2022/03/20 09:56:24;;;;;;;9.10;3.85;;;17.50;99.90;;;;;;5004344;28;20038;-78
2022/03/20 09:58:50;;;;;;;12.20;4.18;;;17.60;99.90;;;;;;5006148;28;20034;-78
2022/03/20 10:01:16;;;;;;;11.35;4.50;;;17.40;99.90;;;;;;5032344;28;20492;-77
2022/03/20 10:03:42;;;;;;;12.75;3.70;;;17.50;99.90;;;;;;5036028;28;20022;-77
2022/03/20 10:06:17;;;;;;;10.07;3.75;;;17.40;99.90;;;;;;5025405;28;20044;-77
2022/03/20 10:08:58;;;;;;;8.77;4.40;;;17.20;99.90;;;;;;5033414;28;20041;-77
2022/03/20 10:11:27;;;;;;;9.98;3.60;;;17.00;99.90;;;;;;5023203;28;20056;-77
2022/03/20 10:14:23;;;;;;;13.02;4.50;;;16.90;99.90;;;;;;5016651;28;20072;-77
2022/03/20 10:16:55;;;;;;;11.52;4.10;;;16.60;99.90;;;;;;5012855;28;20131;-78
2022/03/20 10:19:24;;;;;;;10.88;4.18;;;16.60;99.90;;;;;;5022782;28;20049;-78
2022/03/20 10:21:57;;;;;;;12.00;4.28;;;16.50;99.90;;;;;;5035880;28;20087;-77
2022/03/20 10:24:24;;;;;;;13.38;4.28;;;16.50;99.90;;;;;;5003717;28;20411;-77
2022/03/20 10:27:05;;;;;;;9.40;4.32;;;16.60;99.90;;;;;;5039864;28;20485;-78
2022/03/20 10:29:33;;;;;;;11.07;4.35;;;16.50;99.90;;;;;;5004033;28;20101;-77
2022/03/20 10:32:10;;;;;;;14.10;4.28;;;16.70;99.90;;;;;;5008989;28;20064;-78
2022/03/20 10:34:53;;;;;;;9.20;3.90;;;17.10;99.90;;;;;;5034662;28;20068;-77
2022/03/20 10:37:21;;;;;;;9.02;4.07;;;17.10;99.90;;;;;;4997802;28;20044;-77
2022/03/20 10:39:47;;;;;;;10.77;3.88;;;16.90;99.90;;;;;;5019673;28;20042;-78
2022/03/20 10:42:15;;;;;;;11.05;4.45;;;17.00;99.90;;;;;;5029185;28;20038;-78
2022/03/20 10:44:41;;;;;;;9.63;3.63;;;17.10;99.90;;;;;;5003918;28;20048;-78
2022/03/20 10:47:14;;;;;;;11.32;3.70;;;17.30;99.90;;;;;;4991718;28;20049;-77
2022/03/20 10:49:43;;;;;;;14.82;4.28;;;17.60;99.90;;;;;;5021150;28;20034;-78
2022/03/20 10:52:11;;;;;;;11.55;4.05;;;18.00;99.90;;;;;;5026626;28;20056;-76
2022/03/20 10:54:51;;;;;;;10.38;4.10;;;17.80;99.90;;;;;;5012033;28;20458;-77
2022/03/20 10:57:17;;;;;;;14.07;3.78;;;17.70;99.90;;;;;;5025613;28;20377;-77
2022/03/20 10:59:56;;;;;;;14.15;4.30;;;17.40;99.90;;;;;;5035486;28;20077;-77
2022/03/20 11:02:24;;;;;;;12.13;4.70;;;17.10;99.90;;;;;;5032871;28;21258;-78
2022/03/20 11:04:51;;;;;;;13.63;4.45;;;16.90;99.90;;;;;;5029970;28;20080;-76
2022/03/20 11:07:18;;;;;;;11.38;4.03;;;16.70;99.90;;;;;;5036411;28;20042;-77
2022/03/20 11:09:46;;;;;;;10.93;4.57;;;16.60;99.90;;;;;;5033264;28;20045;-77
2022/03/20 11:12:33;;;;;;;13.70;4.63;;;16.80;99.90;;;;;;5036185;28;20168;-76
2022/03/20 11:15:04;;;;;;;12.02;4.50;;;17.00;99.90;;;;;;5037649;28;20662;-77
2022/03/20 11:17:57;;;;;;;11.05;3.85;;;17.20;99.90;;;;;;5003181;28;20049;-77
2022/03/20 11:20:25;;;;;;;11.20;4.28;;;17.20;99.90;;;;;;4999693;28;20888;-78
2022/03/20 11:22:53;;;;;;;12.45;4.50;;;17.10;99.90;;;;;;5001447;28;20038;-77
2022/03/20 11:25:24;;;;;;;15.82;4.75;;;17.10;99.90;;;;;;5031692;28;20157;-77
2022/03/20 11:27:55;;;;;;;12.25;4.50;;;16.90;99.90;;;;;;5003051;28;20098;-77
2022/03/20 11:30:27;;;;;;;10.63;4.22;;;17.00;99.90;;;;;;5031283;28;20133;-77
2022/03/20 11:32:56;;;;;;;12.85;3.97;;;17.30;99.90;;;;;;5034491;28;20038;-77
2022/03/20 11:35:25;;;;;;;9.43;4.03;;;18.20;99.90;;;;;;5035245;28;20037;-78
2022/03/20 11:37:54;;;;;;;12.35;4.00;;;18.60;99.90;;;;;;4998984;28;20117;-77
2022/03/20 11:40:22;;;;;;;13.35;4.60;;;19.10;99.90;;;;;;5006090;28;20037;-77
2022/03/20 11:43:11;;;;;;;12.60;4.53;;;19.40;99.90;;;;;;5033862;28;20053;-77
2022/03/20 11:45:37;;;;;;;10.65;4.57;;;20.00;99.90;;;;;;5005619;28;20112;-77
2022/03/20 11:48:14;;;;;;;13.05;4.88;;;20.10;99.90;;;;;;5004067;28;20173;-76
2022/03/20 11:50:49;;;;;;;12.85;4.10;;;20.00;99.90;;;;;;5029168;28;20041;-77
2022/03/20 11:53:30;;;;;;;10.63;3.83;;;19.60;99.90;;;;;;5000418;28;20042;-77
2022/03/20 11:55:57;;;;;;;13.48;4.70;;;19.30;99.90;;;;;;5002791;28;20031;-77
2022/03/20 11:58:24;;;;;;;14.07;4.63;;;18.90;99.90;;;;;;5033400;28;20048;-76
2022/03/20 12:01:11;;;;;;;14.98;4.93;;;18.40;99.90;;;;;;5031391;28;20324;-77
2022/03/20 12:04:04;;;;;;;11.65;3.63;;;17.70;99.90;;;;;;5029846;28;20045;-76
2022/03/20 12:06:51;;;;;;;12.48;4.85;;;17.30;99.90;;;;;;5025667;28;20037;-76
2022/03/20 12:09:57;;;;;;;10.90;4.70;;;17.10;99.90;;;;;;5021345;28;20091;-76
2022/03/20 12:12:47;;;;;;;13.48;5.05;;;17.10;99.90;;;;;;5028913;28;20389;-77
2022/03/20 12:15:17;;;;;;;13.90;5.20;;;16.90;99.90;;;;;;5012153;28;20041;-77
2022/03/20 12:17:58;;;;;;;12.82;4.88;;;16.60;99.90;;;;;;5004439;28;20033;-77
2022/03/20 12:20:48;;;;;;;13.85;5.45;;;16.20;99.90;;;;;;5043344;28;20080;-77
2022/03/20 12:23:30;;;;;;;14.18;5.10;;;15.70;99.90;;;;;;5001652;28;20034;-77
2022/03/20 12:25:56;;;;;;;13.20;5.47;;;15.50;99.90;;;;;;5020551;28;20070;-77
2022/03/20 12:28:31;;;;;;;11.98;5.03;;;15.40;99.90;;;;;;5024927;28;20069;-77
2022/03/20 12:30:57;;;;;;;14.75;5.28;;;15.40;99.90;;;;;;5019438;28;20053;-77
2022/03/20 12:33:27;;;;;;;15.25;6.10;;;15.40;99.90;;;;;;5000250;28;20038;-77
2022/03/20 12:35:54;;;;;;;14.80;5.60;;;15.50;99.90;;;;;;5004416;28;20038;-78
2022/03/20 12:38:40;;;;;;;14.52;5.95;;;15.60;99.90;;;;;;5000569;28;20113;-79
2022/03/20 12:41:08;;;;;;;14.50;5.55;;;16.10;99.90;;;;;;5033525;28;20030;-77
2022/03/20 12:43:33;;;;;;;14.98;5.78;;;16.70;99.90;;;;;;5001771;28;20476;-77
2022/03/20 12:46:00;;;;;;;10.88;4.50;;;17.70;99.90;;;;;;5036362;28;20038;-77
2022/03/20 12:48:30;;;;;;;11.82;5.20;;;17.70;99.90;;;;;;5002243;28;20030;-78
2022/03/20 12:51:10;;;;;;;13.18;4.93;;;17.40;99.90;;;;;;5003549;28;20104;-76
2022/03/20 12:53:41;;;;;;;11.52;4.47;;;17.10;99.90;;;;;;5039146;28;20156;-78
2022/03/20 12:58:51;;;;;;;15.00;5.40;;;16.20;99.90;;;;;;5007525;28;20045;-77
2022/03/20 13:01:17;;;;;;;17.48;6.35;;;15.50;99.90;;;;;;5001946;28;20481;-76
2022/03/20 13:03:45;;;;;;;17.52;6.28;;;14.90;99.90;;;;;;5001530;28;20108;-74
2022/03/20 13:06:10;;;;;;;16.45;6.50;;;14.60;99.90;;;;;;5035688;28;20403;-75
2022/03/20 13:08:38;;;;;;;14.10;6.28;;;14.60;99.90;;;;;;4999393;28;20048;-75
2022/03/20 13:11:48;;;;;;;14.18;5.68;;;14.60;99.90;;;;;;5000728;28;20074;-75